createdAt,value
2022-12-17T00:01:25.674Z,-4.90
2022-12-17T00:04:12.704Z,-4.90
2022-12-17T00:07:00.495Z,-4.96
2022-12-17T00:09:50.260Z,-4.98
2022-12-17T00:12:38.255Z,-4.97
2022-12-17T00:15:26.569Z,-4.98
2022-12-17T00:18:27.278Z,-4.95
2022-12-17T00:21:18.687Z,-4.91
2022-12-17T00:24:07.437Z,-4.87
2022-12-17T00:26:55.720Z,-4.86
2022-12-17T00:29:44.084Z,-4.87
2022-12-17T00:32:30.946Z,-4.83
2022-12-17T00:35:17.768Z,-4.81
2022-12-17T00:38:07.503Z,-4.82
2022-12-17T00:40:54.439Z,-4.87
2022-12-17T00:43:44.853Z,-4.91
2022-12-17T00:46:31.480Z,-4.93
2022-12-17T00:49:18.483Z,-4.96
2022-12-17T00:52:05.317Z,-4.96
2022-12-17T00:54:52.008Z,-5.01
2022-12-17T00:57:38.686Z,-5.04
2022-12-17T01:00:27.329Z,-5.04
2022-12-17T01:03:26.129Z,-5.04
2022-12-17T01:06:15.080Z,-5.11
2022-12-17T01:09:01.746Z,-5.14
2022-12-17T01:11:49.254Z,-5.13
2022-12-17T01:14:35.722Z,-5.12
2022-12-17T01:17:22.447Z,-5.14
2022-12-17T01:20:09.198Z,-5.16
2022-12-17T01:22:56.442Z,-5.17
2022-12-17T01:25:44.463Z,-5.15
2022-12-17T01:28:31.314Z,-5.11
2022-12-17T01:31:18.151Z,-5.08
2022-12-17T01:34:05.847Z,-5.07
2022-12-17T01:36:52.632Z,-5.08
2022-12-17T01:39:39.398Z,-5.09
2022-12-17T01:42:32.047Z,-5.09
2022-12-17T01:45:18.974Z,-5.08
2022-12-17T01:48:15.716Z,-5.05
2022-12-17T01:51:10.640Z,-5.08
2022-12-17T01:54:03.671Z,-5.09
2022-12-17T01:56:51.567Z,-5.08
2022-12-17T01:59:55.359Z,-5.06
2022-12-17T02:02:42.412Z,-5.08
2022-12-17T02:05:31.872Z,-5.12
2022-12-17T02:08:26.195Z,-5.14
2022-12-17T02:11:34.752Z,-5.17
2022-12-17T02:14:42.902Z,-5.21
2022-12-17T02:17:37.223Z,-5.23
2022-12-17T02:20:37.532Z,-5.29
2022-12-17T02:23:24.249Z,-5.25
2022-12-17T02:26:27.315Z,-5.22
2022-12-17T02:29:19.174Z,-5.20
2022-12-17T02:32:08.494Z,-5.22
2022-12-17T02:35:06.374Z,-5.22
2022-12-17T02:37:55.101Z,-5.20
2022-12-17T02:40:44.054Z,-5.19
2022-12-17T02:43:33.692Z,-5.22
2022-12-17T02:46:21.305Z,-5.25
2022-12-17T02:49:11.035Z,-5.24
2022-12-17T02:52:01.713Z,-5.21
2022-12-17T02:54:52.827Z,-5.23
2022-12-17T02:57:43.784Z,-5.25
2022-12-17T03:00:33.005Z,-5.33
2022-12-17T03:03:21.213Z,-5.40
2022-12-17T03:06:08.226Z,-5.45
2022-12-17T03:08:54.975Z,-5.47
2022-12-17T03:11:46.324Z,-5.49
2022-12-17T03:14:52.921Z,-5.52
2022-12-17T03:17:39.950Z,-5.59
2022-12-17T03:20:28.350Z,-5.63
2022-12-17T03:23:27.931Z,-5.63
2022-12-17T03:26:20.790Z,-5.63
2022-12-17T03:29:07.691Z,-5.62
2022-12-17T03:31:54.134Z,-5.61
2022-12-17T03:34:40.968Z,-5.59
2022-12-17T03:37:28.069Z,-5.59
2022-12-17T03:40:14.800Z,-5.61
2022-12-17T03:43:01.630Z,-5.59
2022-12-17T03:45:48.607Z,-5.61
2022-12-17T03:48:35.450Z,-5.61
2022-12-17T03:51:22.087Z,-5.59
2022-12-17T03:54:08.452Z,-5.56
2022-12-17T03:56:55.321Z,-5.57
2022-12-17T03:59:41.781Z,-5.63
2022-12-17T04:02:28.515Z,-5.65
2022-12-17T04:05:20.387Z,-5.66
2022-12-17T04:08:08.488Z,-5.71
2022-12-17T04:10:55.065Z,-5.75
2022-12-17T04:13:44.969Z,-5.79
2022-12-17T04:16:32.655Z,-5.82
2022-12-17T04:19:19.537Z,-5.87
2022-12-17T04:22:06.087Z,-5.92
2022-12-17T04:24:52.962Z,-5.96
2022-12-17T04:27:39.500Z,-6.01
2022-12-17T04:30:27.997Z,-6.07
2022-12-17T04:33:14.836Z,-6.09
2022-12-17T04:36:01.628Z,-6.07
2022-12-17T04:38:48.259Z,-6.04
2022-12-17T04:41:34.724Z,-6.09
2022-12-17T04:44:24.974Z,-6.11
2022-12-17T04:47:11.810Z,-6.10
2022-12-17T04:49:59.974Z,-6.12
2022-12-17T04:52:46.773Z,-6.09
2022-12-17T04:55:33.461Z,-6.08
2022-12-17T04:58:24.797Z,-6.11
2022-12-17T05:01:14.040Z,-6.04
2022-12-17T05:04:01.683Z,-6.00
2022-12-17T05:06:49.825Z,-5.98
2022-12-17T05:09:36.617Z,-5.95
2022-12-17T05:12:23.340Z,-5.92
2022-12-17T05:15:10.005Z,-5.89
2022-12-17T05:17:56.776Z,-5.87
2022-12-17T05:20:43.171Z,-5.84
2022-12-17T05:23:30.004Z,-5.80
2022-12-17T05:26:23.082Z,-5.81
2022-12-17T05:29:15.615Z,-5.78
2022-12-17T05:32:03.852Z,-5.76
2022-12-17T05:34:50.574Z,-5.75
2022-12-17T05:37:37.186Z,-5.76
2022-12-17T05:40:25.915Z,-5.75
2022-12-17T05:43:20.072Z,-5.69
2022-12-17T05:46:08.393Z,-5.64
2022-12-17T05:48:56.343Z,-5.61
2022-12-17T05:51:44.553Z,-5.60
2022-12-17T05:54:30.954Z,-5.56
2022-12-17T05:57:17.830Z,-5.48
2022-12-17T06:00:04.449Z,-5.42
2022-12-17T06:02:59.999Z,-5.43
2022-12-17T06:05:47.897Z,-5.41
2022-12-17T06:08:34.626Z,-5.37
2022-12-17T06:11:21.395Z,-5.33
2022-12-17T06:14:08.288Z,-5.29
2022-12-17T06:16:54.976Z,-5.24
2022-12-17T06:19:41.958Z,-5.22
2022-12-17T06:22:29.668Z,-5.20
2022-12-17T06:25:16.402Z,-5.19
2022-12-17T06:28:03.129Z,-5.13
2022-12-17T06:30:50.061Z,-5.09
2022-12-17T06:33:36.771Z,-5.07
2022-12-17T06:36:24.928Z,-5.09
2022-12-17T06:39:11.463Z,-5.06
2022-12-17T06:42:04.242Z,-4.99
2022-12-17T06:44:52.744Z,-4.99
2022-12-17T06:47:39.676Z,-4.99
2022-12-17T06:50:27.690Z,-4.95
2022-12-17T06:53:24.210Z,-4.88
2022-12-17T06:56:16.956Z,-4.81
2022-12-17T06:59:03.749Z,-4.77
2022-12-17T07:01:52.580Z,-4.82
2022-12-17T07:04:40.171Z,-4.79
2022-12-17T07:07:26.891Z,-4.76
2022-12-17T07:10:14.449Z,-4.76
2022-12-17T07:13:02.620Z,-4.73
2022-12-17T07:15:49.394Z,-4.66
2022-12-17T07:18:40.539Z,-4.64
2022-12-17T07:21:27.358Z,-4.65
2022-12-17T07:24:13.849Z,-4.67
2022-12-17T07:27:00.497Z,-4.63
2022-12-17T07:29:47.421Z,-4.63
2022-12-17T07:32:34.193Z,-4.58
2022-12-17T07:35:20.915Z,-4.59
2022-12-17T07:38:07.765Z,-4.50
2022-12-17T07:40:54.475Z,-4.47
2022-12-17T07:43:41.280Z,-4.46
2022-12-17T07:46:28.054Z,-4.40
2022-12-17T07:49:15.032Z,-4.37
2022-12-17T07:52:01.638Z,-4.25
2022-12-17T07:54:48.451Z,-4.23
2022-12-17T07:57:35.244Z,-4.22
2022-12-17T08:00:23.967Z,-4.18
2022-12-17T08:03:17.990Z,-4.17
2022-12-17T08:06:06.112Z,-4.11
2022-12-17T08:08:52.511Z,-4.04
2022-12-17T08:11:40.283Z,-4.03
2022-12-17T08:14:26.949Z,-3.94
2022-12-17T08:17:13.652Z,-3.88
2022-12-17T08:20:00.473Z,-3.79
2022-12-17T08:22:47.281Z,-3.69
2022-12-17T08:25:34.002Z,-3.66
2022-12-17T08:28:49.000Z,-3.65
2022-12-17T08:31:27.244Z,-3.59
2022-12-17T08:34:14.020Z,-3.49
2022-12-17T08:37:00.825Z,-3.38
2022-12-17T08:39:47.460Z,-3.33
2022-12-17T08:42:34.170Z,-3.25
2022-12-17T08:45:20.882Z,-3.18
2022-12-17T08:48:07.609Z,-3.15
2022-12-17T08:50:54.465Z,-3.08
2022-12-17T08:53:41.289Z,-3.00
2022-12-17T08:56:28.712Z,-2.94
2022-12-17T08:59:15.352Z,-2.87
2022-12-17T09:02:02.430Z,-2.81
2022-12-17T09:04:49.627Z,-2.78
2022-12-17T09:07:36.459Z,-2.73
2022-12-17T09:10:23.730Z,-2.69
2022-12-17T09:13:10.539Z,-2.68
2022-12-17T09:15:57.221Z,-2.66
2022-12-17T09:18:43.952Z,-2.65
2022-12-17T09:21:30.750Z,-2.59
2022-12-17T09:24:17.674Z,-2.52
2022-12-17T09:27:04.948Z,-2.48
2022-12-17T09:29:51.561Z,-2.49
2022-12-17T09:32:38.278Z,-2.49
2022-12-17T09:35:24.820Z,-2.48
2022-12-17T09:38:15.368Z,-2.46
2022-12-17T09:41:08.518Z,-2.43
2022-12-17T09:44:23.450Z,-2.35
2022-12-17T09:47:21.023Z,-2.38
2022-12-17T09:50:07.776Z,-2.42
2022-12-17T09:52:58.632Z,-2.41
2022-12-17T09:55:47.369Z,-2.40
2022-12-17T09:58:41.126Z,-2.40
2022-12-17T10:01:40.587Z,-2.41
2022-12-17T10:04:53.590Z,-2.37
2022-12-17T10:07:44.387Z,-2.37
2022-12-17T10:10:38.786Z,-2.39
2022-12-17T10:13:31.704Z,-2.31
2022-12-17T10:16:19.083Z,-2.33
2022-12-17T10:19:06.272Z,-2.28
2022-12-17T10:21:54.066Z,-2.25
2022-12-17T10:24:40.598Z,-2.25
2022-12-17T10:27:29.278Z,-2.25
2022-12-17T10:30:29.368Z,-2.25
2022-12-17T10:33:16.002Z,-2.16
2022-12-17T10:36:02.668Z,-2.09
2022-12-17T10:38:50.383Z,-1.99
2022-12-17T10:41:42.928Z,-1.93
2022-12-17T10:44:59.230Z,-1.96
2022-12-17T10:47:46.902Z,-1.96
2022-12-17T10:50:42.711Z,-1.97
2022-12-17T10:53:41.831Z,-1.94
2022-12-17T10:56:44.863Z,-1.85
2022-12-17T10:59:43.777Z,-1.82
2022-12-17T11:02:39.864Z,-1.84
2022-12-17T11:05:46.418Z,-1.91
2022-12-17T11:08:35.067Z,-1.85
2022-12-17T11:11:29.276Z,-1.82
2022-12-17T11:14:17.833Z,-1.76
2022-12-17T11:17:14.238Z,-1.72
2022-12-17T11:20:11.146Z,-1.70
2022-12-17T11:23:03.570Z,-1.72
2022-12-17T11:26:12.571Z,-1.68
2022-12-17T11:28:59.300Z,-1.73
2022-12-17T11:32:04.894Z,-1.67
2022-12-17T11:35:10.154Z,-1.58
2022-12-17T11:38:02.854Z,-1.54
2022-12-17T11:41:03.559Z,-1.54
2022-12-17T11:44:21.830Z,-1.54
2022-12-17T11:47:42.805Z,-1.61
2022-12-17T11:50:45.481Z,-1.68
2022-12-17T11:53:44.624Z,-1.65
2022-12-17T11:56:47.692Z,-1.64
2022-12-17T11:59:50.955Z,-1.86
2022-12-17T12:03:14.616Z,-1.96
2022-12-17T12:06:18.341Z,-1.93
2022-12-17T12:09:17.491Z,-1.91
2022-12-17T12:12:22.087Z,-1.95
2022-12-17T12:15:53.516Z,-1.95
2022-12-17T12:18:50.610Z,-1.92
2022-12-17T12:21:44.880Z,-1.92
2022-12-17T12:24:47.394Z,-1.91
2022-12-17T12:27:45.827Z,-1.92
2022-12-17T12:30:43.014Z,-1.97
2022-12-17T12:34:04.586Z,-2.02
2022-12-17T12:36:53.849Z,-2.08
2022-12-17T12:40:04.339Z,-2.17
2022-12-17T12:43:11.617Z,-2.27
2022-12-17T12:46:41.758Z,-2.37
2022-12-17T12:49:52.540Z,-2.40
2022-12-17T12:52:43.288Z,-2.32
2022-12-17T12:55:30.397Z,-2.23
2022-12-17T12:58:22.751Z,-2.20
2022-12-17T13:01:09.736Z,-2.16
2022-12-17T13:04:09.938Z,-2.09
2022-12-17T13:06:51.105Z,-2.08
2022-12-17T13:09:20.821Z,-2.11
2022-12-17T13:11:55.750Z,-2.16
2022-12-17T13:14:47.900Z,-2.29
2022-12-17T13:17:16.266Z,-2.40
2022-12-17T13:19:57.870Z,-2.43
2022-12-17T13:22:29.771Z,-2.43
2022-12-17T13:25:16.045Z,-2.37
2022-12-17T13:27:44.425Z,-2.34
2022-12-17T13:30:18.087Z,-2.32
2022-12-17T13:33:04.696Z,-2.39
2022-12-17T13:35:47.478Z,-2.41
2022-12-17T13:38:24.289Z,-2.47
2022-12-17T13:41:30.142Z,-2.48
2022-12-17T13:44:22.043Z,-2.45
2022-12-17T13:46:52.757Z,-2.49
2022-12-17T13:49:25.212Z,-2.53
2022-12-17T13:52:11.723Z,-2.58
2022-12-17T13:54:40.249Z,-2.62
2022-12-17T13:57:14.885Z,-2.63
2022-12-17T13:59:51.701Z,-2.63
2022-12-17T14:02:31.924Z,-2.61
2022-12-17T14:05:07.464Z,-2.59
2022-12-17T14:07:39.586Z,-2.64
2022-12-17T14:10:17.162Z,-2.77
2022-12-17T14:12:47.398Z,-2.81
2022-12-17T14:15:25.807Z,-2.84
2022-12-17T14:17:55.202Z,-2.80
2022-12-17T14:20:26.385Z,-2.77
2022-12-17T14:22:59.744Z,-2.82
2022-12-17T14:25:34.514Z,-2.92
2022-12-17T14:28:28.751Z,-2.98
2022-12-17T14:31:31.605Z,-2.94
2022-12-17T14:34:11.613Z,-2.97
2022-12-17T14:36:42.441Z,-2.96
2022-12-17T14:39:21.165Z,-2.94
2022-12-17T14:42:08.000Z,-2.93
2022-12-17T14:44:43.003Z,-2.94
2022-12-17T14:47:25.415Z,-2.95
2022-12-17T14:50:30.934Z,-2.96
2022-12-17T14:53:02.410Z,-3.00
2022-12-17T14:55:55.198Z,-3.01
2022-12-17T14:58:26.784Z,-3.10
2022-12-17T15:01:12.860Z,-3.11
2022-12-17T15:03:46.344Z,-3.08
2022-12-17T15:06:19.992Z,-3.08
2022-12-17T15:08:53.310Z,-3.04
2022-12-17T15:11:23.174Z,-2.94
2022-12-17T15:13:56.112Z,-2.89
2022-12-17T15:16:25.064Z,-2.85
2022-12-17T15:18:53.270Z,-2.85
2022-12-17T15:21:22.240Z,-2.95
2022-12-17T15:23:50.624Z,-2.98
2022-12-17T15:26:20.151Z,-2.93
2022-12-17T15:28:48.146Z,-2.86
2022-12-17T15:31:20.567Z,-2.78
2022-12-17T15:33:51.685Z,-2.72
2022-12-17T15:36:19.637Z,-2.71
2022-12-17T15:38:48.883Z,-2.73
2022-12-17T15:41:35.798Z,-2.76
2022-12-17T15:44:03.842Z,-2.79
2022-12-17T15:46:31.781Z,-2.84
2022-12-17T15:49:02.307Z,-2.86
2022-12-17T15:51:30.317Z,-2.88
2022-12-17T15:53:58.244Z,-2.88
2022-12-17T15:56:30.205Z,-2.88
2022-12-17T15:58:59.094Z,-2.88
2022-12-17T16:01:27.237Z,-2.85
2022-12-17T16:03:55.527Z,-2.83
2022-12-17T16:06:23.731Z,-2.80
2022-12-17T16:08:51.673Z,-2.81
2022-12-17T16:11:19.819Z,-2.83
2022-12-17T16:13:53.244Z,-2.83
2022-12-17T16:16:25.119Z,-2.85
2022-12-17T16:18:53.164Z,-2.87
2022-12-17T16:21:21.339Z,-2.86
2022-12-17T16:23:49.567Z,-2.88
2022-12-17T16:26:17.557Z,-2.92
2022-12-17T16:28:45.606Z,-2.93
2022-12-17T16:31:16.391Z,-2.92
2022-12-17T16:33:45.738Z,-2.89
2022-12-17T16:36:16.181Z,-2.86
2022-12-17T16:38:52.281Z,-2.82
2022-12-17T16:41:22.018Z,-2.80
2022-12-17T16:43:50.823Z,-2.79
2022-12-17T16:46:29.804Z,-2.76
2022-12-17T16:49:03.904Z,-2.77
2022-12-17T16:51:31.980Z,-2.79
2022-12-17T16:54:05.236Z,-2.81
2022-12-17T16:56:38.125Z,-2.82
2022-12-17T16:59:10.329Z,-2.82
2022-12-17T17:01:40.110Z,-2.82
2022-12-17T17:04:10.001Z,-2.83
2022-12-17T17:06:42.978Z,-2.83
2022-12-17T17:09:12.518Z,-2.80
2022-12-17T17:11:41.466Z,-2.81
2022-12-17T17:14:09.485Z,-2.82
2022-12-17T17:16:38.220Z,-2.82
2022-12-17T17:19:06.840Z,-2.83
2022-12-17T17:21:40.291Z,-2.84
2022-12-17T17:24:20.824Z,-2.85
2022-12-17T17:26:52.030Z,-2.85
2022-12-17T17:29:20.206Z,-2.87
2022-12-17T17:34:39.799Z,-2.86
2022-12-17T17:37:09.663Z,-2.85
2022-12-17T17:39:37.747Z,-2.85
2022-12-17T17:42:06.291Z,-2.85
2022-12-17T17:44:34.948Z,-2.86
2022-12-17T17:47:03.291Z,-2.88
2022-12-17T17:49:31.249Z,-2.88
2022-12-17T17:52:14.372Z,-2.92
2022-12-17T17:54:42.693Z,-2.95
2022-12-17T17:57:11.803Z,-3.12
2022-12-17T17:59:40.080Z,-3.12
2022-12-17T18:02:11.128Z,-3.09
2022-12-17T18:04:40.289Z,-3.13
2022-12-17T18:07:24.703Z,-3.15
2022-12-17T18:09:55.386Z,-3.16
2022-12-17T18:12:42.975Z,-3.16
2022-12-17T18:15:15.939Z,-3.14
2022-12-17T18:17:46.927Z,-3.09
2022-12-17T18:20:15.664Z,-3.07
2022-12-17T18:22:46.071Z,-3.11
2022-12-17T18:25:16.666Z,-3.15
2022-12-17T18:27:45.150Z,-3.17
2022-12-17T18:30:14.162Z,-3.15
2022-12-17T18:32:42.431Z,-3.15
2022-12-17T18:35:10.572Z,-3.14
2022-12-17T18:37:39.142Z,-3.15
2022-12-17T18:40:08.640Z,-3.14
2022-12-17T18:42:56.186Z,-3.16
2022-12-17T18:45:24.104Z,-3.22
2022-12-17T18:47:52.061Z,-3.23
2022-12-17T18:50:19.927Z,-3.23
2022-12-17T18:52:47.901Z,-3.21
2022-12-17T18:55:16.535Z,-3.21
2022-12-17T18:57:44.574Z,-3.23
2022-12-17T19:00:13.348Z,-3.24
2022-12-17T19:02:41.714Z,-3.27
2022-12-17T19:05:10.016Z,-3.28
2022-12-17T19:07:37.917Z,-3.31
2022-12-17T19:10:06.276Z,-3.32
2022-12-17T19:12:34.288Z,-3.31
2022-12-17T19:15:02.431Z,-3.31
2022-12-17T19:17:30.407Z,-3.35
2022-12-17T19:19:58.349Z,-3.34
2022-12-17T19:22:26.260Z,-3.33
2022-12-17T19:24:54.335Z,-3.34
2022-12-17T19:27:22.212Z,-3.33
2022-12-17T19:29:55.345Z,-3.32
2022-12-17T19:32:24.953Z,-3.37
2022-12-17T19:34:52.877Z,-3.39
2022-12-17T19:37:20.769Z,-3.42
2022-12-17T19:39:48.667Z,-3.43
2022-12-17T19:42:25.093Z,-3.40
2022-12-17T19:44:55.187Z,-3.41
2022-12-17T19:47:24.234Z,-3.43
2022-12-17T19:49:52.156Z,-3.46
2022-12-17T19:52:20.065Z,-3.50
2022-12-17T19:54:49.559Z,-3.53
2022-12-17T19:57:17.677Z,-3.51
2022-12-17T19:59:45.589Z,-3.52
2022-12-17T20:02:15.956Z,-3.55
2022-12-17T20:04:44.170Z,-3.60
2022-12-17T20:07:12.152Z,-3.61
2022-12-17T20:09:44.808Z,-3.66
2022-12-17T20:12:13.381Z,-3.64
2022-12-17T20:14:41.335Z,-3.68
2022-12-17T20:17:09.639Z,-3.69
2022-12-17T20:19:37.681Z,-3.73
2022-12-17T20:22:06.503Z,-3.73
2022-12-17T20:24:34.490Z,-3.74
2022-12-17T20:27:02.556Z,-3.72
2022-12-17T20:29:30.398Z,-3.74
2022-12-17T20:32:01.495Z,-3.78
2022-12-17T20:34:29.491Z,-3.85
2022-12-17T20:36:57.491Z,-3.87
2022-12-17T20:39:28.222Z,-3.86
2022-12-17T20:41:57.475Z,-3.86
2022-12-17T20:44:26.041Z,-3.90
2022-12-17T20:46:54.133Z,-3.92
2022-12-17T20:49:22.171Z,-3.92
2022-12-17T20:51:50.248Z,-3.93
2022-12-17T20:54:18.670Z,-4.00
2022-12-17T20:56:47.285Z,-4.13
2022-12-17T20:59:18.830Z,-4.20
2022-12-17T21:01:52.811Z,-4.22
2022-12-17T21:04:24.078Z,-4.25
2022-12-17T21:06:53.126Z,-4.22
2022-12-17T21:09:22.806Z,-4.19
2022-12-17T21:12:16.493Z,-4.23
2022-12-17T21:14:44.806Z,-4.23
2022-12-17T21:17:16.159Z,-4.21
2022-12-17T21:19:44.299Z,-4.20
2022-12-17T21:22:15.137Z,-4.18
2022-12-17T21:24:43.088Z,-4.20
2022-12-17T21:27:14.989Z,-4.22
2022-12-17T21:29:43.452Z,-4.22
2022-12-17T21:32:11.348Z,-4.18
2022-12-17T21:34:39.576Z,-4.13
2022-12-17T21:37:09.619Z,-4.11
2022-12-17T21:39:37.870Z,-4.13
2022-12-17T21:42:24.407Z,-4.15
2022-12-17T21:44:52.241Z,-4.13
2022-12-17T21:47:20.829Z,-4.12
2022-12-17T21:49:48.766Z,-4.14
2022-12-17T21:52:16.594Z,-4.22
2022-12-17T21:54:44.574Z,-4.32
2022-12-17T21:57:12.419Z,-4.34
2022-12-17T21:59:41.323Z,-4.37
2022-12-17T22:02:10.930Z,-4.37
2022-12-17T22:04:39.075Z,-4.39
2022-12-17T22:07:29.727Z,-4.40
2022-12-17T22:10:24.690Z,-4.36
2022-12-17T22:13:01.847Z,-4.29
2022-12-17T22:15:29.993Z,-4.27
2022-12-17T22:18:01.568Z,-4.26
2022-12-17T22:20:29.623Z,-4.29
2022-12-17T22:22:57.503Z,-4.37
2022-12-17T22:25:25.786Z,-4.40
2022-12-17T22:27:53.909Z,-4.39
2022-12-17T22:30:40.620Z,-4.39
2022-12-17T22:33:14.768Z,-4.41
2022-12-17T22:37:42.662Z,-4.44
2022-12-17T22:44:18.675Z,-4.51
2022-12-17T22:44:37.551Z,-4.60
2022-12-17T22:44:55.804Z,-4.66
2022-12-17T22:47:25.734Z,-4.71
2022-12-17T22:49:53.627Z,-4.69
2022-12-17T22:52:22.314Z,-4.71
2022-12-17T22:54:50.713Z,-4.74
2022-12-17T22:57:35.907Z,-4.85
2022-12-17T23:00:16.942Z,-4.98
2022-12-17T23:02:44.980Z,-5.08
2022-12-17T23:05:14.948Z,-5.12
2022-12-17T23:07:42.844Z,-5.13
2022-12-17T23:10:10.890Z,-5.13
2022-12-17T23:12:50.971Z,-5.11
2022-12-17T23:15:32.792Z,-5.10
2022-12-17T23:18:03.832Z,-5.13
2022-12-17T23:20:34.192Z,-5.20
2022-12-17T23:23:02.356Z,-5.20
2022-12-17T23:25:31.229Z,-5.19
2022-12-17T23:27:59.149Z,-5.23
2022-12-17T23:30:27.004Z,-5.36
2022-12-17T23:32:54.879Z,-5.50
2022-12-17T23:35:22.975Z,-5.62
2022-12-17T23:37:50.952Z,-5.73
2022-12-17T23:40:19.125Z,-5.81
2022-12-17T23:42:47.123Z,-5.88
2022-12-17T23:45:15.076Z,-5.96
2022-12-17T23:47:43.118Z,-6.05
2022-12-17T23:50:11.789Z,-6.10
2022-12-17T23:52:40.247Z,-6.14
2022-12-17T23:55:08.920Z,-6.17
2022-12-17T23:57:37.766Z,-6.16
